createdAt,value
2022-11-06T00:00:34.762Z,40.00
2022-11-06T00:03:03.885Z,39.83
2022-11-06T00:05:50.019Z,41.07
2022-11-06T00:08:28.063Z,41.07
2022-11-06T00:10:56.290Z,42.80
2022-11-06T00:13:25.941Z,42.27
2022-11-06T00:15:54.075Z,42.27
2022-11-06T00:18:22.084Z,42.07
2022-11-06T00:20:50.156Z,42.67
2022-11-06T00:23:18.256Z,45.08
2022-11-06T00:25:46.299Z,43.87
2022-11-06T00:28:14.834Z,44.13
2022-11-06T00:30:44.509Z,43.03
2022-11-06T00:33:12.553Z,41.97
2022-11-06T00:35:41.264Z,41.97
2022-11-06T00:38:09.520Z,42.30
2022-11-06T00:40:37.812Z,43.00
2022-11-06T00:43:05.891Z,42.50
2022-11-06T00:45:33.979Z,42.13
2022-11-06T00:48:03.390Z,43.30
2022-11-06T00:50:31.496Z,43.03
2022-11-06T00:52:59.481Z,42.10
2022-11-06T00:55:27.554Z,42.27
2022-11-06T00:57:55.690Z,41.60
2022-11-06T01:00:23.784Z,41.80
2022-11-06T01:02:51.945Z,40.73
2022-11-06T01:05:21.538Z,40.90
2022-11-06T01:07:49.583Z,41.07
2022-11-06T01:10:17.687Z,40.27
2022-11-06T01:12:45.749Z,40.03
2022-11-06T01:15:13.769Z,38.03
2022-11-06T01:17:41.856Z,40.33
2022-11-06T01:20:11.048Z,39.03
2022-11-06T01:22:40.475Z,39.20
2022-11-06T01:25:09.899Z,40.03
2022-11-06T01:27:37.948Z,39.27
2022-11-06T01:30:07.419Z,39.10
2022-11-06T01:32:35.744Z,38.47
2022-11-06T01:35:03.804Z,39.73
2022-11-06T01:37:31.935Z,38.50
2022-11-06T01:40:01.298Z,39.83
2022-11-06T01:42:29.369Z,37.97
2022-11-06T01:45:20.438Z,37.37
2022-11-06T01:47:49.329Z,37.70
2022-11-06T01:50:18.696Z,37.97
2022-11-06T01:52:50.100Z,37.23
2022-11-06T01:55:23.678Z,38.60
2022-11-06T01:57:52.552Z,37.83
2022-11-06T02:00:21.170Z,36.30
2022-11-06T02:02:50.857Z,39.23
2022-11-06T02:05:19.374Z,37.57
2022-11-06T02:07:47.693Z,37.93
2022-11-06T02:10:16.414Z,36.10
2022-11-06T02:12:54.356Z,36.37
2022-11-06T02:15:30.847Z,36.33
2022-11-06T02:18:13.285Z,36.00
2022-11-06T02:20:54.465Z,37.23
2022-11-06T02:23:51.588Z,37.63
2022-11-06T02:26:47.416Z,36.53
2022-11-06T02:29:21.177Z,36.07
2022-11-06T02:31:52.622Z,35.83
2022-11-06T02:34:24.910Z,37.60
2022-11-06T02:36:59.179Z,35.87
2022-11-06T02:39:29.564Z,37.70
2022-11-06T02:42:00.416Z,37.63
2022-11-06T02:44:32.005Z,36.87
2022-11-06T02:47:04.327Z,38.03
2022-11-06T02:49:39.115Z,37.03
2022-11-06T02:52:12.359Z,39.00
2022-11-06T02:54:45.308Z,36.90
2022-11-06T02:57:18.064Z,36.50
2022-11-06T02:59:51.222Z,38.63
2022-11-06T03:02:25.479Z,36.67
2022-11-06T03:05:00.184Z,37.03
2022-11-06T03:07:34.137Z,37.63
2022-11-06T03:10:02.520Z,37.60
2022-11-06T03:12:34.944Z,37.60
2022-11-06T03:15:15.904Z,36.50
2022-11-06T03:17:50.126Z,36.47
2022-11-06T03:20:23.622Z,37.33
2022-11-06T03:22:58.174Z,36.37
2022-11-06T03:25:30.467Z,36.47
2022-11-06T03:28:06.740Z,36.10
2022-11-06T03:30:38.724Z,36.47
2022-11-06T03:33:14.767Z,35.87
2022-11-06T03:35:48.918Z,36.03
2022-11-06T03:38:20.594Z,36.77
2022-11-06T03:40:54.405Z,37.43
2022-11-06T03:43:29.539Z,37.10
2022-11-06T03:45:58.958Z,36.73
2022-11-06T03:48:33.134Z,36.43
2022-11-06T03:51:04.760Z,36.23
2022-11-06T03:53:41.008Z,35.90
2022-11-06T03:56:14.761Z,36.37
2022-11-06T03:58:47.112Z,36.03
2022-11-06T04:01:17.608Z,36.83
2022-11-06T04:03:50.787Z,36.30
2022-11-06T04:06:22.792Z,36.53
2022-11-06T04:09:10.961Z,36.80
2022-11-06T04:11:58.481Z,35.87
2022-11-06T04:14:30.974Z,36.00
2022-11-06T04:17:03.261Z,35.93
2022-11-06T04:19:31.268Z,35.50
2022-11-06T04:22:22.792Z,35.83
2022-11-06T04:25:21.172Z,36.23
2022-11-06T04:28:07.621Z,34.13
2022-11-06T04:30:44.842Z,35.57
2022-11-06T04:33:19.428Z,35.60
2022-11-06T04:36:00.064Z,35.50
2022-11-06T04:38:37.341Z,35.27
2022-11-06T04:41:14.352Z,36.37
2022-11-06T04:43:47.366Z,34.97
2022-11-06T04:46:21.647Z,35.17
2022-11-06T04:48:50.943Z,34.30
2022-11-06T04:51:22.487Z,34.27
2022-11-06T04:53:53.291Z,34.67
2022-11-06T04:56:29.147Z,35.63
2022-11-06T04:58:57.682Z,34.87
2022-11-06T05:01:27.887Z,35.53
2022-11-06T05:03:55.949Z,34.60
2022-11-06T05:06:29.617Z,34.43
2022-11-06T05:08:59.075Z,34.20
2022-11-06T05:11:27.150Z,34.07
2022-11-06T05:13:55.350Z,33.40
2022-11-06T05:16:23.419Z,34.77
2022-11-06T05:18:52.835Z,33.13
2022-11-06T05:21:38.442Z,33.77
2022-11-06T05:24:07.679Z,33.30
2022-11-06T05:26:35.867Z,33.63
2022-11-06T05:29:04.276Z,33.00
2022-11-06T05:31:32.628Z,32.77
2022-11-06T05:34:02.039Z,31.13
2022-11-06T05:36:30.100Z,30.80
2022-11-06T05:38:58.143Z,30.77
2022-11-06T05:41:26.297Z,31.57
2022-11-06T05:43:54.665Z,32.03
2022-11-06T05:46:47.048Z,32.40
2022-11-06T05:49:12.149Z,34.10
2022-11-06T05:51:40.274Z,32.77
2022-11-06T05:54:08.325Z,32.17
2022-11-06T05:56:36.561Z,31.60
2022-11-06T05:59:04.713Z,31.83
2022-11-06T06:01:32.998Z,32.37
2022-11-06T06:04:01.173Z,32.70
2022-11-06T06:06:30.837Z,32.10
2022-11-06T06:08:58.877Z,31.67
2022-11-06T06:11:26.948Z,32.67
2022-11-06T06:13:55.855Z,31.97
2022-11-06T06:16:23.987Z,31.67
2022-11-06T06:18:52.158Z,30.87
2022-11-06T06:21:20.448Z,32.03
2022-11-06T06:23:50.186Z,31.93
2022-11-06T06:26:18.282Z,33.70
2022-11-06T06:28:49.471Z,31.70
2022-11-06T06:31:17.874Z,31.43
2022-11-06T06:33:46.451Z,31.70
2022-11-06T06:36:14.743Z,31.77
2022-11-06T06:38:43.074Z,34.00
2022-11-06T06:41:12.625Z,30.83
2022-11-06T06:43:40.818Z,32.57
2022-11-06T06:46:09.686Z,33.03
2022-11-06T06:48:38.555Z,31.63
2022-11-06T06:51:07.949Z,30.83
2022-11-06T06:53:36.371Z,31.13
2022-11-06T06:56:04.736Z,30.37
2022-11-06T06:58:35.168Z,31.90
2022-11-06T07:01:05.240Z,31.13
2022-11-06T07:03:33.817Z,31.80
2022-11-06T07:06:02.074Z,32.00
2022-11-06T07:08:30.836Z,32.17
2022-11-06T07:11:02.685Z,32.90
2022-11-06T07:13:35.522Z,32.40
2022-11-06T07:16:05.622Z,33.90
2022-11-06T07:18:33.777Z,34.27
2022-11-06T07:21:02.084Z,31.83
2022-11-06T07:23:30.106Z,31.30
2022-11-06T07:25:58.444Z,31.20
2022-11-06T07:28:26.617Z,30.90
2022-11-06T07:30:59.504Z,32.30
2022-11-06T07:33:29.128Z,31.47
2022-11-06T07:35:57.344Z,31.60
2022-11-06T07:38:25.412Z,30.73
2022-11-06T07:40:53.498Z,30.57
2022-11-06T07:43:21.593Z,31.37
2022-11-06T07:45:49.643Z,30.30
2022-11-06T07:48:17.748Z,32.30
2022-11-06T07:50:47.116Z,30.60
2022-11-06T07:53:15.658Z,31.57
2022-11-06T07:55:49.740Z,32.77
2022-11-06T07:58:18.246Z,33.37
2022-11-06T08:00:48.729Z,33.90
2022-11-06T08:03:17.480Z,33.47
2022-11-06T08:05:47.548Z,32.90
2022-11-06T08:08:15.889Z,32.00
2022-11-06T08:10:44.991Z,30.93
2022-11-06T08:13:14.432Z,32.17
2022-11-06T08:15:43.214Z,31.50
2022-11-06T08:18:13.060Z,33.07
2022-11-06T08:20:41.910Z,32.83
2022-11-06T08:23:14.085Z,31.43
2022-11-06T08:25:42.360Z,30.60
2022-11-06T08:28:11.550Z,31.30
2022-11-06T08:30:39.909Z,29.50
2022-11-06T08:33:09.347Z,28.70
2022-11-06T08:35:37.591Z,28.57
2022-11-06T08:38:05.962Z,28.70
2022-11-06T08:40:37.536Z,26.80
2022-11-06T08:43:07.431Z,27.20
2022-11-06T08:45:38.463Z,27.53
2022-11-06T08:48:07.483Z,27.57
2022-11-06T08:50:37.025Z,27.57
2022-11-06T08:53:06.534Z,26.53
2022-11-06T08:55:37.717Z,27.00
2022-11-06T08:58:06.865Z,26.53
2022-11-06T09:00:35.443Z,27.10
2022-11-06T09:03:05.652Z,27.10
2022-11-06T09:05:34.276Z,28.03
2022-11-06T09:08:02.490Z,25.70
2022-11-06T09:10:30.640Z,24.27
2022-11-06T09:13:00.971Z,23.47
2022-11-06T09:15:29.115Z,23.60
2022-11-06T09:17:57.629Z,23.07
2022-11-06T09:20:26.627Z,23.20
2022-11-06T09:22:55.478Z,22.57
2022-11-06T09:25:23.549Z,21.87
2022-11-06T09:27:59.266Z,22.17
2022-11-06T09:30:30.920Z,22.10
2022-11-06T09:33:01.315Z,20.50
2022-11-06T09:35:31.805Z,19.73
2022-11-06T09:38:03.360Z,19.20
2022-11-06T09:40:35.097Z,19.67
2022-11-06T09:43:31.833Z,19.67
2022-11-06T09:46:18.390Z,20.27
2022-11-06T09:48:50.879Z,18.67
2022-11-06T09:51:28.430Z,18.87
2022-11-06T09:54:02.741Z,18.63
2022-11-06T09:56:35.160Z,18.60
2022-11-06T09:59:06.468Z,18.93
2022-11-06T10:01:43.915Z,18.50
2022-11-06T10:04:25.269Z,18.63
2022-11-06T10:06:54.390Z,18.40
2022-11-06T10:09:22.689Z,18.50
2022-11-06T10:12:01.120Z,18.40
2022-11-06T10:14:46.098Z,18.40
2022-11-06T10:17:27.742Z,18.90
2022-11-06T10:20:01.377Z,18.77
2022-11-06T10:22:37.438Z,18.93
2022-11-06T10:25:19.904Z,18.30
2022-11-06T10:28:01.962Z,18.50
2022-11-06T10:30:40.658Z,19.13
2022-11-06T10:33:32.312Z,18.80
2022-11-06T10:36:04.711Z,19.00
2022-11-06T10:38:37.332Z,19.30
2022-11-06T10:41:05.729Z,20.63
2022-11-06T10:43:41.222Z,18.70
2022-11-06T10:46:20.006Z,18.90
2022-11-06T10:48:54.029Z,19.00
2022-11-06T10:51:36.988Z,19.00
2022-11-06T10:54:19.259Z,19.00
2022-11-06T10:57:02.034Z,19.40
2022-11-06T10:59:30.414Z,18.77
2022-11-06T11:01:58.689Z,18.00
2022-11-06T11:04:28.165Z,18.50
2022-11-06T11:06:56.539Z,18.50
2022-11-06T11:09:30.261Z,19.03
2022-11-06T11:11:58.891Z,18.10
2022-11-06T11:14:28.793Z,19.00
2022-11-06T11:16:59.903Z,21.43
2022-11-06T11:19:36.956Z,18.10
2022-11-06T11:22:07.005Z,18.33
2022-11-06T11:24:35.137Z,18.40
2022-11-06T11:27:05.634Z,19.20
2022-11-06T11:29:42.704Z,18.37
2022-11-06T11:32:16.781Z,17.47
2022-11-06T11:34:53.937Z,17.63
2022-11-06T11:37:26.862Z,17.90
2022-11-06T11:39:55.116Z,17.50
2022-11-06T11:42:25.857Z,17.27
2022-11-06T11:45:15.408Z,17.77
2022-11-06T11:47:46.627Z,17.70
2022-11-06T11:50:37.131Z,18.30
2022-11-06T11:53:14.681Z,17.97
2022-11-06T11:55:45.437Z,17.83
2022-11-06T11:58:21.135Z,18.40
2022-11-06T12:00:54.965Z,17.50
2022-11-06T12:03:25.299Z,18.13
2022-11-06T12:05:55.597Z,17.67
2022-11-06T12:08:26.454Z,18.10
2022-11-06T12:11:01.921Z,19.23
2022-11-06T12:13:30.064Z,17.90
2022-11-06T12:16:00.398Z,17.33
2022-11-06T12:18:31.737Z,17.30
2022-11-06T12:21:04.994Z,17.53
2022-11-06T12:23:44.860Z,17.53
2022-11-06T12:26:21.198Z,17.60
2022-11-06T12:28:53.759Z,17.27
2022-11-06T12:31:29.475Z,17.43
2022-11-06T12:34:06.954Z,17.33
2022-11-06T12:36:41.273Z,17.63
2022-11-06T12:39:15.491Z,17.50
2022-11-06T12:41:46.841Z,17.30
2022-11-06T12:44:17.045Z,17.47
2022-11-06T12:46:51.896Z,17.97
2022-11-06T12:49:42.360Z,17.20
2022-11-06T12:52:25.121Z,17.53
2022-11-06T12:55:12.120Z,18.20
2022-11-06T12:57:54.108Z,17.50
2022-11-06T13:00:30.172Z,17.73
2022-11-06T13:03:20.476Z,17.37
2022-11-06T13:05:56.495Z,17.67
2022-11-06T13:08:35.735Z,18.50
2022-11-06T13:11:15.078Z,18.73
2022-11-06T13:13:55.784Z,17.63
2022-11-06T13:16:31.891Z,17.90
2022-11-06T13:19:05.906Z,18.27
2022-11-06T13:21:56.041Z,18.60
2022-11-06T13:24:31.043Z,18.53
2022-11-06T13:27:09.508Z,18.83
2022-11-06T13:29:38.587Z,18.47
2022-11-06T13:32:13.165Z,17.77
2022-11-06T13:34:43.347Z,18.40
2022-11-06T13:37:17.566Z,18.60
2022-11-06T13:39:51.147Z,18.93
2022-11-06T13:42:24.445Z,18.90
2022-11-06T13:44:53.529Z,20.20
2022-11-06T13:47:28.902Z,20.43
2022-11-06T13:50:05.225Z,21.13
2022-11-06T13:52:42.475Z,21.40
2022-11-06T13:55:18.612Z,20.50
2022-11-06T13:58:04.456Z,21.60
2022-11-06T14:00:41.675Z,22.07
2022-11-06T14:03:46.136Z,22.83
2022-11-06T14:06:20.378Z,23.93
2022-11-06T14:08:51.826Z,23.33
2022-11-06T14:11:27.010Z,24.97
2022-11-06T14:14:01.554Z,23.67
2022-11-06T14:16:33.387Z,23.20
2022-11-06T14:19:08.041Z,23.77
2022-11-06T14:21:48.268Z,25.87
2022-11-06T14:24:28.811Z,23.70
2022-11-06T14:26:59.256Z,23.43
2022-11-06T14:29:58.616Z,26.43
2022-11-06T14:32:42.610Z,26.90
2022-11-06T14:35:47.652Z,25.40
2022-11-06T14:38:37.614Z,26.80
2022-11-06T14:41:51.660Z,26.67
2022-11-06T14:44:34.574Z,28.37
2022-11-06T14:47:06.259Z,28.60
2022-11-06T14:49:42.153Z,31.57
2022-11-06T14:52:13.106Z,32.50
2022-11-06T14:54:50.178Z,31.60
2022-11-06T14:57:34.591Z,30.90
2022-11-06T15:00:05.464Z,32.50
2022-11-06T15:02:37.587Z,30.23
2022-11-06T15:05:13.718Z,31.60
2022-11-06T15:08:05.941Z,32.37
2022-11-06T15:10:55.067Z,33.70
2022-11-06T15:13:27.943Z,30.57
2022-11-06T15:16:03.533Z,33.20
2022-11-06T15:18:34.102Z,32.43
2022-11-06T15:21:05.854Z,34.90
2022-11-06T15:23:40.317Z,36.10
2022-11-06T15:26:19.306Z,36.43
2022-11-06T15:28:50.236Z,35.97
2022-11-06T15:31:21.726Z,37.60
2022-11-06T15:33:58.334Z,36.30
2022-11-06T15:36:29.215Z,35.87
2022-11-06T15:38:57.294Z,34.80
2022-11-06T15:41:27.266Z,36.80
2022-11-06T15:43:58.154Z,34.53
2022-11-06T15:46:29.406Z,31.70
2022-11-06T15:49:17.037Z,28.93
2022-11-06T15:51:52.794Z,31.33
2022-11-06T15:54:37.988Z,32.00
2022-11-06T15:57:14.523Z,32.23
2022-11-06T15:59:42.976Z,35.50
2022-11-06T16:02:17.529Z,38.33
2022-11-06T16:04:46.775Z,37.73
2022-11-06T16:07:16.009Z,40.33
2022-11-06T16:09:44.791Z,37.13
2022-11-06T16:12:13.888Z,37.73
2022-11-06T16:14:44.229Z,37.60
2022-11-06T16:17:19.557Z,36.80
2022-11-06T16:19:49.890Z,37.07
2022-11-06T16:22:20.104Z,36.80
2022-11-06T16:24:52.727Z,34.73
2022-11-06T16:27:23.485Z,33.80
2022-11-06T16:29:55.467Z,34.57
2022-11-06T16:32:27.935Z,32.80
2022-11-06T16:34:56.403Z,33.13
2022-11-06T16:37:39.603Z,35.03
2022-11-06T16:40:49.779Z,34.20
2022-11-06T16:43:19.528Z,33.30
2022-11-06T16:45:56.140Z,34.40
2022-11-06T16:48:39.663Z,34.83
2022-11-06T16:51:10.957Z,36.30
2022-11-06T16:53:53.256Z,37.47
2022-11-06T16:56:25.695Z,38.53
2022-11-06T16:58:57.861Z,37.80
2022-11-06T17:01:27.001Z,40.63
2022-11-06T17:04:00.160Z,39.10
2022-11-06T17:06:31.371Z,39.27
2022-11-06T17:09:09.661Z,41.15
2022-11-06T17:11:38.759Z,40.93
2022-11-06T17:14:19.645Z,40.13
2022-11-06T17:16:49.956Z,42.67
2022-11-06T17:19:20.778Z,41.53
2022-11-06T17:21:50.121Z,41.80
2022-11-06T17:24:36.102Z,42.97
2022-11-06T17:27:04.926Z,42.43
2022-11-06T17:29:33.919Z,41.70
2022-11-06T17:32:01.934Z,41.80
2022-11-06T17:34:31.316Z,42.97
2022-11-06T17:36:59.469Z,42.47
2022-11-06T17:39:27.551Z,43.63
2022-11-06T17:41:55.597Z,40.90
2022-11-06T17:44:23.715Z,42.40
2022-11-06T17:46:51.771Z,44.93
2022-11-06T17:49:19.833Z,47.07
2022-11-06T17:51:58.173Z,46.83
2022-11-06T17:54:28.063Z,45.97
2022-11-06T17:56:57.662Z,46.57
2022-11-06T17:59:26.066Z,45.03
2022-11-06T18:01:55.542Z,47.90
2022-11-06T18:04:25.539Z,51.43
2022-11-06T18:06:55.765Z,49.30
2022-11-06T18:09:24.651Z,52.77
2022-11-06T18:11:54.707Z,47.40
2022-11-06T18:14:24.024Z,45.70
2022-11-06T18:16:52.632Z,48.92
2022-11-06T18:19:22.322Z,46.77
2022-11-06T18:21:51.096Z,48.63
2022-11-06T18:24:20.504Z,45.20
2022-11-06T18:26:48.611Z,46.87
2022-11-06T18:29:16.730Z,44.67
2022-11-06T18:31:45.049Z,46.40
2022-11-06T18:34:19.449Z,46.67
2022-11-06T18:36:50.093Z,49.53
2022-11-06T18:39:18.431Z,47.83
2022-11-06T18:41:47.875Z,46.47
2022-11-06T18:44:17.441Z,43.60
2022-11-06T18:46:45.712Z,43.90
2022-11-06T18:49:13.849Z,45.60
2022-11-06T18:51:42.069Z,45.47
2022-11-06T18:54:12.385Z,44.83
2022-11-06T18:56:40.674Z,46.53
2022-11-06T18:59:15.520Z,44.07
2022-11-06T19:01:43.973Z,42.87
2022-11-06T19:04:12.253Z,46.70
2022-11-06T19:06:41.043Z,49.80
2022-11-06T19:09:09.490Z,47.93
2022-11-06T19:11:37.626Z,49.20
2022-11-06T19:14:05.994Z,51.37
2022-11-06T19:16:35.502Z,49.43
2022-11-06T19:19:05.625Z,50.83
2022-11-06T19:21:34.607Z,50.50
2022-11-06T19:24:05.560Z,52.17
2022-11-06T19:26:35.452Z,53.47
2022-11-06T19:29:03.824Z,54.13
2022-11-06T19:31:33.608Z,54.07
2022-11-06T19:34:04.315Z,56.07
2022-11-06T19:36:32.866Z,54.80
2022-11-06T19:39:01.324Z,62.70
2022-11-06T19:41:30.189Z,59.90
2022-11-06T19:43:58.456Z,57.03
2022-11-06T19:46:33.681Z,58.93
2022-11-06T19:49:05.140Z,56.87
2022-11-06T19:51:34.201Z,58.67
2022-11-06T19:54:02.721Z,56.07
2022-11-06T19:56:30.793Z,58.10
2022-11-06T19:58:59.330Z,61.30
2022-11-06T20:01:27.679Z,60.83
2022-11-06T20:03:55.874Z,60.50
2022-11-06T20:06:27.373Z,63.47
2022-11-06T20:08:55.596Z,61.53
2022-11-06T20:11:23.791Z,58.20
2022-11-06T20:13:52.227Z,59.57
2022-11-06T20:16:21.353Z,62.50
2022-11-06T20:18:52.269Z,63.83
2022-11-06T20:21:21.055Z,63.93
2022-11-06T20:23:51.110Z,64.10
2022-11-06T20:26:19.775Z,63.37
2022-11-06T20:28:48.564Z,60.37
2022-11-06T20:31:19.628Z,60.73
2022-11-06T20:33:48.414Z,62.13
2022-11-06T20:36:18.923Z,63.87
2022-11-06T20:38:47.651Z,58.63
2022-11-06T20:41:17.911Z,60.30
2022-11-06T20:43:46.726Z,59.17
2022-11-06T20:46:17.600Z,58.07
2022-11-06T20:48:46.228Z,57.97
2022-11-06T20:51:17.508Z,58.40
2022-11-06T20:53:46.335Z,59.33
2022-11-06T20:56:17.788Z,61.30
2022-11-06T20:58:46.550Z,60.73
2022-11-06T21:01:19.913Z,60.27
2022-11-06T21:03:50.438Z,60.23
2022-11-06T21:06:19.592Z,58.70
2022-11-06T21:08:47.943Z,58.70
2022-11-06T21:11:19.474Z,59.63
2022-11-06T21:13:49.403Z,59.97
2022-11-06T21:16:20.241Z,60.30
2022-11-06T21:18:48.787Z,61.27
2022-11-06T21:21:22.352Z,62.67
2022-11-06T21:23:51.925Z,60.60
2022-11-06T21:26:23.258Z,61.50
2022-11-06T21:28:52.410Z,62.50
2022-11-06T21:31:22.535Z,61.17
2022-11-06T21:33:52.518Z,59.17
2022-11-06T21:36:22.519Z,62.03
2022-11-06T21:38:50.923Z,62.13
2022-11-06T21:41:22.475Z,60.00
2022-11-06T21:43:50.811Z,63.00
2022-11-06T21:46:19.476Z,63.27
2022-11-06T21:48:48.067Z,62.63
2022-11-06T21:51:18.707Z,60.57
2022-11-06T21:54:04.682Z,60.33
2022-11-06T21:56:35.372Z,59.23
2022-11-06T21:59:05.779Z,60.00
2022-11-06T22:01:34.493Z,56.33
2022-11-06T22:04:02.815Z,53.87
2022-11-06T22:06:31.411Z,56.63
2022-11-06T22:09:01.042Z,58.20
2022-11-06T22:11:31.283Z,56.27
2022-11-06T22:14:03.366Z,58.90
2022-11-06T22:16:35.706Z,59.10
2022-11-06T22:19:04.233Z,58.37
2022-11-06T22:21:32.340Z,61.20
2022-11-06T22:24:00.537Z,58.70
2022-11-06T22:26:30.947Z,59.60
2022-11-06T22:29:02.040Z,59.43
2022-11-06T22:31:30.888Z,58.20
2022-11-06T22:33:59.002Z,60.30
2022-11-06T22:36:27.227Z,65.90
2022-11-06T22:38:55.390Z,62.77
2022-11-06T22:41:25.389Z,63.93
2022-11-06T22:43:58.090Z,64.80
2022-11-06T22:46:28.315Z,66.50
2022-11-06T22:48:56.548Z,67.43
2022-11-06T22:51:26.233Z,69.43
2022-11-06T22:53:54.608Z,71.07
2022-11-06T22:56:23.781Z,69.93
2022-11-06T22:58:54.772Z,69.30
2022-11-06T23:01:24.543Z,63.10
2022-11-06T23:03:56.935Z,60.60
2022-11-06T23:06:26.356Z,57.77
2022-11-06T23:08:55.061Z,55.83
2022-11-06T23:11:24.309Z,56.13
2022-11-06T23:13:52.752Z,57.20
2022-11-06T23:16:43.702Z,57.80
2022-11-06T23:19:18.772Z,55.77
2022-11-06T23:21:46.856Z,55.23
2022-11-06T23:24:14.916Z,57.10
2022-11-06T23:26:44.117Z,55.97
2022-11-06T23:29:12.207Z,54.40
2022-11-06T23:31:41.136Z,53.30
2022-11-06T23:34:09.650Z,54.77
2022-11-06T23:36:39.124Z,55.47
2022-11-06T23:39:07.159Z,56.13
2022-11-06T23:41:45.767Z,56.80
2022-11-06T23:44:33.054Z,52.50
2022-11-06T23:47:01.693Z,54.17
2022-11-06T23:49:29.983Z,53.47
2022-11-06T23:51:59.659Z,52.20
2022-11-06T23:54:27.817Z,52.80
2022-11-06T23:56:55.917Z,53.87
2022-11-06T23:59:24.449Z,53.30
